Weather at Konarzyny Air Base [CLOSED]

Public forecast

Using degrees Celsius for public forecast. Weather courtesy of forecast.io.

Closest aviation weather report (METAR) to Konarzyny Air Base

Closest report is Bydgoszcz Ignacy Jan Paderewski Airport, 49.1 nm (91.0 km) SSE. Retrieved 2021/09/25 05:30 UTC (14 minutes ago):

EPBY 250530Z 26015KT 9999 SCT015 BKN028 16/13 Q1010

Closest aviation forecast (TAF) to Konarzyny Air Base

Closest forecast is Bydgoszcz Ignacy Jan Paderewski Airport, 49.1 nm (91.0 km) SSE. Retrieved 2021-09-25 00:00 UTC (6 hours ago):

TAF EPBY 242330Z 2500/2524 25010KT 9999 BKN040 TEMPO 2500/2508 BKN014 PROB30 TEMPO 2502/2506 -RA BKN006 TEMPO 2506/2517 25015G25KT TEMPO 2510/2516 -SHRA BKN030TCU